createdAt,value
2024-01-25T00:01:32.417Z,12.05
2024-01-25T00:03:58.995Z,12.04
2024-01-25T00:06:26.599Z,12.27
2024-01-25T00:08:53.039Z,11.50
2024-01-25T00:11:19.386Z,10.97
2024-01-25T00:13:45.735Z,12.18
2024-01-25T00:16:12.119Z,12.51
2024-01-25T00:18:38.564Z,12.39
2024-01-25T00:21:04.974Z,12.06
2024-01-25T00:23:31.326Z,12.06
2024-01-25T00:26:00.050Z,12.40
2024-01-25T00:28:26.811Z,12.36
2024-01-25T00:30:53.231Z,12.66
2024-01-25T00:33:19.796Z,12.10
2024-01-25T00:35:46.219Z,12.13
2024-01-25T00:38:12.677Z,12.09
2024-01-25T00:40:39.632Z,10.59
2024-01-25T00:43:06.166Z,10.68
2024-01-25T00:45:32.736Z,10.70
2024-01-25T00:47:59.460Z,11.82
2024-01-25T00:50:27.061Z,11.90
2024-01-25T00:52:53.493Z,12.05
2024-01-25T00:55:20.148Z,12.41
2024-01-25T00:57:46.718Z,11.72
2024-01-25T01:00:13.419Z,11.87
2024-01-25T01:02:45.915Z,11.58
2024-01-25T01:05:12.682Z,12.18
2024-01-25T01:07:42.439Z,11.76
2024-01-25T01:10:09.777Z,11.24
2024-01-25T01:12:36.562Z,12.16
2024-01-25T01:15:02.976Z,11.73
2024-01-25T01:17:29.401Z,11.10
2024-01-25T01:19:55.923Z,12.05
2024-01-25T01:22:22.457Z,12.05
2024-01-25T01:24:48.989Z,12.18
2024-01-25T01:27:15.345Z,12.08
2024-01-25T01:29:42.294Z,11.55
2024-01-25T01:32:09.103Z,12.03
2024-01-25T01:34:35.581Z,12.04
2024-01-25T01:37:02.186Z,11.78
2024-01-25T01:39:28.665Z,12.16
2024-01-25T01:41:55.088Z,11.42
2024-01-25T01:44:21.746Z,11.02
2024-01-25T01:46:48.098Z,10.92
2024-01-25T01:49:14.940Z,10.59
2024-01-25T01:51:41.608Z,10.63
2024-01-25T01:54:08.148Z,11.27
2024-01-25T01:56:34.520Z,11.81
2024-01-25T01:59:01.394Z,12.00
2024-01-25T02:01:28.112Z,11.79
2024-01-25T02:03:55.004Z,11.73
2024-01-25T02:06:21.614Z,11.61
2024-01-25T02:08:48.611Z,12.26
2024-01-25T02:11:14.966Z,11.99
2024-01-25T02:13:41.320Z,11.18
2024-01-25T02:16:08.068Z,10.09
2024-01-25T02:18:34.655Z,10.21
2024-01-25T02:21:01.057Z,10.35
2024-01-25T02:23:27.879Z,11.13
2024-01-25T02:25:54.294Z,11.35
2024-01-25T02:28:21.119Z,11.21
2024-01-25T02:30:47.767Z,10.85
2024-01-25T02:33:14.192Z,10.79
2024-01-25T02:35:40.564Z,10.43
2024-01-25T02:38:06.923Z,10.33
2024-01-25T02:40:33.282Z,10.66
2024-01-25T02:42:59.759Z,10.88
2024-01-25T02:45:26.141Z,11.06
2024-01-25T02:47:52.605Z,11.59
2024-01-25T02:50:19.177Z,10.81
2024-01-25T02:52:45.556Z,11.08
2024-01-25T02:55:12.024Z,11.38
2024-01-25T02:57:38.530Z,11.81
2024-01-25T03:00:05.615Z,11.95
2024-01-25T03:02:32.500Z,11.44
2024-01-25T03:04:58.932Z,11.31
2024-01-25T03:07:25.432Z,11.94
2024-01-25T03:09:51.888Z,11.42
2024-01-25T03:12:18.626Z,11.53
2024-01-25T03:14:44.987Z,12.24
2024-01-25T03:17:13.368Z,12.39
2024-01-25T03:19:39.821Z,11.66
2024-01-25T03:22:06.217Z,11.47
2024-01-25T03:24:32.984Z,11.07
2024-01-25T03:26:59.362Z,10.31
2024-01-25T03:29:25.683Z,10.52
2024-01-25T03:31:52.097Z,11.38
2024-01-25T03:34:18.750Z,11.49
2024-01-25T03:36:45.300Z,11.43
2024-01-25T03:39:11.699Z,10.86
2024-01-25T03:41:38.123Z,10.56
2024-01-25T03:44:04.631Z,9.83
2024-01-25T03:46:31.038Z,10.61
2024-01-25T03:48:57.479Z,11.67
2024-01-25T03:51:25.169Z,11.61
2024-01-25T03:53:53.707Z,11.72
2024-01-25T03:56:20.156Z,10.96
2024-01-25T03:58:47.555Z,10.33
2024-01-25T04:01:13.973Z,9.96
2024-01-25T04:03:40.449Z,9.92
2024-01-25T04:06:07.022Z,9.96
2024-01-25T04:08:33.394Z,10.70
2024-01-25T04:10:59.744Z,10.84
2024-01-25T04:13:26.238Z,11.31
2024-01-25T04:15:52.757Z,11.98
2024-01-25T04:18:19.224Z,12.11
2024-01-25T04:20:45.713Z,12.43
2024-01-25T04:23:12.148Z,12.02
2024-01-25T04:25:38.554Z,12.51
2024-01-25T04:28:05.012Z,11.17
2024-01-25T04:30:32.891Z,9.89
2024-01-25T04:32:59.715Z,9.95
2024-01-25T04:35:26.298Z,10.11
2024-01-25T04:37:52.671Z,10.51
2024-01-25T04:40:20.332Z,10.67
2024-01-25T04:42:46.855Z,10.07
2024-01-25T04:45:13.201Z,10.27
2024-01-25T04:47:40.618Z,10.43
2024-01-25T04:50:07.326Z,10.56
2024-01-25T04:52:33.742Z,11.55
2024-01-25T04:55:00.175Z,11.61
2024-01-25T04:57:26.616Z,11.91
2024-01-25T04:59:53.031Z,11.79
2024-01-25T05:02:19.962Z,11.76
2024-01-25T05:04:46.778Z,11.39
2024-01-25T05:07:13.585Z,10.94
2024-01-25T05:09:40.069Z,10.95
2024-01-25T05:12:06.720Z,9.90
2024-01-25T05:14:33.072Z,9.72
2024-01-25T05:16:59.405Z,9.71
2024-01-25T05:19:26.648Z,10.08
2024-01-25T05:21:53.126Z,9.58
2024-01-25T05:24:19.483Z,9.60
2024-01-25T05:26:45.881Z,9.72
2024-01-25T05:29:12.285Z,9.52
2024-01-25T05:31:38.691Z,9.59
2024-01-25T05:34:05.321Z,9.70
2024-01-25T05:36:31.790Z,9.54
2024-01-25T05:38:58.299Z,9.41
2024-01-25T05:41:24.632Z,10.47
2024-01-25T05:43:50.969Z,10.66
2024-01-25T05:46:17.338Z,10.69
2024-01-25T05:48:43.823Z,10.33
2024-01-25T05:51:10.342Z,10.19
2024-01-25T05:53:36.697Z,9.79
2024-01-25T05:56:05.202Z,9.67
2024-01-25T05:58:31.809Z,9.87
2024-01-25T06:00:58.694Z,10.14
2024-01-25T06:03:25.146Z,10.21
2024-01-25T06:05:51.896Z,10.11
2024-01-25T06:08:18.629Z,10.55
2024-01-25T06:10:45.205Z,9.52
2024-01-25T06:13:11.828Z,9.26
2024-01-25T06:15:39.288Z,9.98
2024-01-25T06:18:05.846Z,9.52
2024-01-25T06:20:32.508Z,9.17
2024-01-25T06:22:58.967Z,9.43
2024-01-25T06:25:25.527Z,10.32
2024-01-25T06:27:52.227Z,10.26
2024-01-25T06:30:20.909Z,10.46
2024-01-25T06:32:47.343Z,10.47
2024-01-25T06:35:13.879Z,10.35
2024-01-25T06:37:43.298Z,10.10
2024-01-25T06:40:16.087Z,9.69
2024-01-25T06:42:43.794Z,9.14
2024-01-25T06:48:37.662Z,8.90
2024-01-25T06:51:17.958Z,9.68
2024-01-25T06:53:44.446Z,9.74
2024-01-25T06:56:11.063Z,10.48
2024-01-25T06:58:37.522Z,10.47
2024-01-25T07:01:05.964Z,10.27
2024-01-25T07:03:33.237Z,10.82
2024-01-25T07:06:00.255Z,10.48
2024-01-25T07:08:27.058Z,10.50
2024-01-25T07:10:53.471Z,11.00
2024-01-25T07:13:22.388Z,10.20
2024-01-25T07:15:49.161Z,9.21
2024-01-25T07:18:15.957Z,8.81
2024-01-25T07:20:42.818Z,8.73
2024-01-25T07:23:09.658Z,9.17
2024-01-25T07:25:36.194Z,9.89
2024-01-25T07:28:03.350Z,10.11
2024-01-25T07:30:29.918Z,9.74
2024-01-25T07:32:56.386Z,9.90
2024-01-25T07:35:24.850Z,10.21
2024-01-25T07:37:58.352Z,10.40
2024-01-25T07:40:24.977Z,10.09
2024-01-25T07:42:51.526Z,9.35
2024-01-25T07:45:18.705Z,10.17
2024-01-25T07:47:45.504Z,10.61
2024-01-25T07:57:23.012Z,10.13
2024-01-25T07:59:49.441Z,9.30
2024-01-25T08:02:21.087Z,8.66
2024-01-25T08:04:48.333Z,8.54
2024-01-25T08:07:15.016Z,8.45
2024-01-25T08:09:55.154Z,8.68
2024-01-25T08:12:21.563Z,9.18
2024-01-25T08:14:48.026Z,10.20
2024-01-25T08:17:14.799Z,10.63
2024-01-25T08:19:41.348Z,11.11
2024-01-25T08:22:07.895Z,10.60
2024-01-25T08:24:34.390Z,10.54
2024-01-25T08:27:00.876Z,9.35
2024-01-25T08:29:27.312Z,9.71
2024-01-25T08:31:53.765Z,10.57
2024-01-25T08:34:20.590Z,11.46
2024-01-25T08:36:47.128Z,11.78
2024-01-25T08:39:13.555Z,11.96
2024-01-25T08:41:41.937Z,12.13
2024-01-25T08:44:08.643Z,12.19
2024-01-25T08:46:35.163Z,12.15
2024-01-25T08:49:02.614Z,12.11
2024-01-25T08:51:29.261Z,12.10
2024-01-25T08:53:55.693Z,12.14
2024-01-25T08:56:22.144Z,12.22
2024-01-25T08:58:49.661Z,12.06
2024-01-25T09:01:16.291Z,12.25
2024-01-25T09:03:42.962Z,12.35
2024-01-25T09:06:09.646Z,12.35
2024-01-25T09:08:39.144Z,12.36
2024-01-25T09:11:05.949Z,11.96
2024-01-25T09:13:33.786Z,11.74
2024-01-25T09:16:11.664Z,12.25
2024-01-25T09:18:38.200Z,12.02
2024-01-25T09:21:04.786Z,12.31
2024-01-25T09:23:31.285Z,12.52
2024-01-25T09:25:57.806Z,12.63
2024-01-25T09:28:26.147Z,12.71
2024-01-25T09:30:53.242Z,12.81
2024-01-25T09:33:20.101Z,12.83
2024-01-25T09:35:48.994Z,12.85
2024-01-25T09:38:16.087Z,12.83
2024-01-25T09:40:42.731Z,12.72
2024-01-25T09:43:09.396Z,12.49
2024-01-25T09:45:36.125Z,12.49
2024-01-25T09:48:05.662Z,12.75
2024-01-25T09:50:35.026Z,12.84
2024-01-25T09:53:01.755Z,12.76
2024-01-25T09:55:28.396Z,12.83
2024-01-25T09:57:56.716Z,12.90
2024-01-25T10:00:23.307Z,12.95
2024-01-25T10:02:50.807Z,12.92
2024-01-25T10:05:20.504Z,12.79
2024-01-25T10:07:47.451Z,11.92
2024-01-25T10:10:14.305Z,12.15
2024-01-25T10:12:44.064Z,12.45
2024-01-25T10:15:10.931Z,12.91
2024-01-25T10:20:12.249Z,13.08
2024-01-25T10:22:39.994Z,13.03
2024-01-25T10:25:12.980Z,13.21
2024-01-25T10:27:39.571Z,13.25
2024-01-25T10:30:07.549Z,13.34
2024-01-25T10:32:34.323Z,13.32
2024-01-25T10:35:00.922Z,13.26
2024-01-25T10:37:27.621Z,12.43
2024-01-25T10:39:55.277Z,12.68
2024-01-25T10:42:22.092Z,12.31
2024-01-25T10:44:48.894Z,12.24
2024-01-25T10:47:15.960Z,12.48
2024-01-25T10:49:42.440Z,12.48
2024-01-25T10:52:09.052Z,12.56
2024-01-25T10:54:35.461Z,12.54
2024-01-25T10:57:02.179Z,12.44
2024-01-25T10:59:28.788Z,12.07
2024-01-25T11:01:55.470Z,12.84
2024-01-25T11:04:22.252Z,13.20
2024-01-25T11:06:48.928Z,13.28
2024-01-25T11:09:17.341Z,13.49
2024-01-25T11:11:45.006Z,13.30
2024-01-25T11:14:15.033Z,13.56
2024-01-25T11:16:45.882Z,13.47
2024-01-25T11:19:18.857Z,13.21
2024-01-25T11:21:46.181Z,13.60
2024-01-25T11:24:13.111Z,13.63
2024-01-25T11:26:39.474Z,13.41
2024-01-25T11:29:05.863Z,12.74
2024-01-25T11:31:32.578Z,12.75
2024-01-25T11:34:00.114Z,13.31
2024-01-25T11:36:26.802Z,13.62
2024-01-25T11:38:53.282Z,13.71
2024-01-25T11:41:19.854Z,13.74
2024-01-25T11:43:46.252Z,13.74
2024-01-25T11:46:13.818Z,13.74
2024-01-25T11:48:41.973Z,13.74
2024-01-25T11:51:10.240Z,13.75
2024-01-25T11:53:36.619Z,13.76
2024-01-25T11:56:03.009Z,13.77
2024-01-25T11:58:33.000Z,13.78
2024-01-25T12:01:01.144Z,13.18
2024-01-25T12:03:27.584Z,13.16
2024-01-25T12:05:54.128Z,13.74
2024-01-25T12:08:20.718Z,13.75
2024-01-25T12:10:47.229Z,13.29
2024-01-25T12:13:13.638Z,12.84
2024-01-25T12:15:42.135Z,12.19
2024-01-25T12:18:09.677Z,12.51
2024-01-25T12:20:36.756Z,13.55
2024-01-25T12:23:03.378Z,13.52
2024-01-25T12:25:29.783Z,12.94
2024-01-25T12:27:56.248Z,13.34
2024-01-25T12:30:23.545Z,13.76
2024-01-25T12:32:50.977Z,14.17
2024-01-25T12:35:18.449Z,13.86
2024-01-25T12:37:44.940Z,13.22
2024-01-25T12:40:11.966Z,13.48
2024-01-25T12:42:38.441Z,13.95
2024-01-25T12:45:05.120Z,14.18
2024-01-25T12:47:32.009Z,14.25
2024-01-25T12:49:58.843Z,14.13
2024-01-25T12:52:25.547Z,14.14
2024-01-25T12:54:52.108Z,14.14
2024-01-25T12:57:18.622Z,14.15
2024-01-25T12:59:46.115Z,14.17
2024-01-25T13:02:12.626Z,14.24
2024-01-25T13:04:39.464Z,14.16
2024-01-25T13:07:07.008Z,14.27
2024-01-25T13:09:35.070Z,14.34
2024-01-25T13:12:02.058Z,14.34
2024-01-25T13:14:28.431Z,14.36
2024-01-25T13:16:54.780Z,14.08
2024-01-25T13:19:21.183Z,14.18
2024-01-25T13:21:47.590Z,14.35
2024-01-25T13:24:14.056Z,14.35
2024-01-25T13:26:40.440Z,14.34
2024-01-25T13:29:06.832Z,14.33
2024-01-25T13:31:33.372Z,14.34
2024-01-25T13:34:00.035Z,14.24
2024-01-25T13:36:26.495Z,14.36
2024-01-25T13:38:52.929Z,14.00
2024-01-25T13:41:19.475Z,14.16
2024-01-25T13:43:45.829Z,14.20
2024-01-25T13:46:12.176Z,14.17
2024-01-25T13:48:38.728Z,13.95
2024-01-25T13:51:05.239Z,13.80
2024-01-25T13:53:32.234Z,13.79
2024-01-25T13:55:58.710Z,13.69
2024-01-25T13:58:25.074Z,13.08
2024-01-25T14:00:51.490Z,13.17
2024-01-25T14:03:18.217Z,13.19
2024-01-25T14:05:44.710Z,13.39
2024-01-25T14:08:11.240Z,13.09
2024-01-25T14:10:38.083Z,13.06
2024-01-25T14:13:04.577Z,12.77
2024-01-25T14:15:31.048Z,12.43
2024-01-25T14:17:57.495Z,12.13
2024-01-25T14:20:24.083Z,11.84
2024-01-25T14:22:50.840Z,11.59
2024-01-25T14:25:17.665Z,11.58
2024-01-25T14:27:44.091Z,11.43
2024-01-25T14:30:10.839Z,11.56
2024-01-25T14:32:37.529Z,12.44
2024-01-25T14:35:04.839Z,11.67
2024-01-25T14:37:32.594Z,11.52
2024-01-25T14:40:09.063Z,12.14
2024-01-25T14:42:45.494Z,12.50
2024-01-25T14:45:11.913Z,12.89
2024-01-25T14:47:38.301Z,12.93
2024-01-25T14:50:04.918Z,12.74
2024-01-25T14:52:34.886Z,12.13
2024-01-25T14:55:02.177Z,12.68
2024-01-25T14:57:28.712Z,12.71
2024-01-25T14:59:55.090Z,12.30
2024-01-25T15:02:21.654Z,11.95
2024-01-25T15:04:48.087Z,12.10
2024-01-25T15:07:18.486Z,11.90
2024-01-25T15:09:44.910Z,11.87
2024-01-25T15:12:11.430Z,11.73
2024-01-25T15:14:37.824Z,12.11
2024-01-25T15:17:04.287Z,12.52
2024-01-25T15:19:30.758Z,12.14
2024-01-25T15:21:57.321Z,12.51
2024-01-25T15:24:23.755Z,12.24
2024-01-25T15:26:50.124Z,12.13
2024-01-25T15:29:16.543Z,12.15
2024-01-25T15:31:42.926Z,12.12
2024-01-25T15:34:09.462Z,11.88
2024-01-25T15:36:36.935Z,12.17
2024-01-25T15:39:04.624Z,12.20
2024-01-25T15:41:31.286Z,11.86
2024-01-25T15:43:58.383Z,12.19
2024-01-25T15:46:24.770Z,12.28
2024-01-25T15:48:52.992Z,12.32
2024-01-25T15:51:19.482Z,12.53
2024-01-25T15:53:45.954Z,12.43
2024-01-25T15:56:12.308Z,12.49
2024-01-25T15:58:38.644Z,12.23
2024-01-25T16:01:05.211Z,12.02
2024-01-25T16:03:31.693Z,11.34
2024-01-25T16:05:58.206Z,11.27
2024-01-25T16:08:24.655Z,11.28
2024-01-25T16:10:51.016Z,11.41
2024-01-25T16:13:17.396Z,11.48
2024-01-25T16:15:43.784Z,11.19
2024-01-25T16:18:10.331Z,10.97
2024-01-25T16:20:36.724Z,10.72
2024-01-25T16:23:03.395Z,10.97
2024-01-25T16:25:31.470Z,9.98
2024-01-25T16:27:58.114Z,9.89
2024-01-25T16:30:24.671Z,10.19
2024-01-25T16:32:51.093Z,10.92
2024-01-25T16:35:17.496Z,11.19
2024-01-25T16:37:43.826Z,10.69
2024-01-25T16:40:10.357Z,10.67
2024-01-25T16:42:36.768Z,10.31
2024-01-25T16:45:03.176Z,9.92
2024-01-25T16:47:29.590Z,10.57
2024-01-25T16:49:56.197Z,10.64
2024-01-25T16:52:22.614Z,10.00
2024-01-25T16:54:49.095Z,10.02
2024-01-25T16:57:15.502Z,10.47
2024-01-25T16:59:41.845Z,10.64
2024-01-25T17:02:08.187Z,10.33
2024-01-25T17:04:34.707Z,10.51
2024-01-25T17:07:01.178Z,10.50
2024-01-25T17:09:27.912Z,10.59
2024-01-25T17:11:54.305Z,10.27
2024-01-25T17:14:20.644Z,10.20
2024-01-25T17:16:47.011Z,10.24
2024-01-25T17:19:13.523Z,10.46
2024-01-25T17:21:40.022Z,10.67
2024-01-25T17:24:07.704Z,10.60
2024-01-25T17:26:34.073Z,10.53
2024-01-25T17:29:01.095Z,10.76
2024-01-25T17:31:27.444Z,11.20
2024-01-25T17:33:54.044Z,11.02
2024-01-25T17:36:20.572Z,11.40
2024-01-25T17:38:46.989Z,11.06
2024-01-25T17:41:13.413Z,10.71
2024-01-25T17:43:40.016Z,10.38
2024-01-25T17:46:06.666Z,10.70
2024-01-25T17:48:34.286Z,10.36
2024-01-25T17:51:00.801Z,10.27
2024-01-25T17:53:27.166Z,10.64
2024-01-25T17:55:53.559Z,10.84
2024-01-25T17:58:19.921Z,10.99
2024-01-25T18:00:46.391Z,10.75
2024-01-25T18:03:12.874Z,10.57
2024-01-25T18:05:39.287Z,10.51
2024-01-25T18:08:05.818Z,10.12
2024-01-25T18:10:32.185Z,9.85
2024-01-25T18:12:58.820Z,10.05
2024-01-25T18:15:25.414Z,10.13
2024-01-25T18:17:51.817Z,9.53
2024-01-25T18:20:19.033Z,9.59
2024-01-25T18:22:45.504Z,9.70
2024-01-25T18:25:11.879Z,9.82
2024-01-25T18:27:38.317Z,9.76
2024-01-25T18:30:04.963Z,9.67
2024-01-25T18:32:31.390Z,9.89
2024-01-25T18:34:57.892Z,10.18
2024-01-25T18:37:24.391Z,9.86
2024-01-25T18:39:50.818Z,9.83
2024-01-25T18:42:17.210Z,9.97
2024-01-25T18:44:43.621Z,9.62
2024-01-25T18:47:11.342Z,9.82
2024-01-25T18:49:38.244Z,9.74
2024-01-25T18:52:04.932Z,9.27
2024-01-25T18:54:31.431Z,9.73
2024-01-25T18:56:57.920Z,10.25
2024-01-25T18:59:27.164Z,9.22
2024-01-25T19:01:54.822Z,9.50
2024-01-25T19:04:21.805Z,8.89
2024-01-25T19:06:55.229Z,9.21
2024-01-25T19:09:27.974Z,9.70
2024-01-25T19:11:54.590Z,9.20
2024-01-25T19:14:20.953Z,9.11
2024-01-25T19:16:50.700Z,8.56
2024-01-25T19:19:17.552Z,8.87
2024-01-25T19:21:44.275Z,9.35
2024-01-25T19:24:10.944Z,9.17
2024-01-25T19:26:37.583Z,8.73
2024-01-25T19:29:03.936Z,8.70
2024-01-25T19:31:30.899Z,8.76
2024-01-25T19:33:57.452Z,8.82
2024-01-25T19:36:24.076Z,8.82
2024-01-25T19:38:50.729Z,8.73
2024-01-25T19:41:17.069Z,9.38
2024-01-25T19:43:43.628Z,9.60
2024-01-25T19:46:10.045Z,9.41
2024-01-25T19:48:36.570Z,9.93
2024-01-25T19:51:03.097Z,10.01
2024-01-25T19:53:29.588Z,10.17
2024-01-25T19:55:56.001Z,10.42
2024-01-25T19:58:24.781Z,9.78
2024-01-25T20:00:51.233Z,9.38
2024-01-25T20:03:18.467Z,9.18
2024-01-25T20:05:46.348Z,8.87
2024-01-25T20:08:13.080Z,8.58
2024-01-25T20:10:39.517Z,8.50
2024-01-25T20:13:05.921Z,8.61
2024-01-25T20:15:32.300Z,9.06
2024-01-25T20:17:58.732Z,8.95
2024-01-25T20:20:34.119Z,9.17
2024-01-25T20:23:09.057Z,9.07
2024-01-25T20:25:35.398Z,8.62
2024-01-25T20:28:01.849Z,9.08
2024-01-25T20:30:29.846Z,8.90
2024-01-25T20:32:56.372Z,9.02
2024-01-25T20:35:22.960Z,8.80
2024-01-25T20:37:49.396Z,8.85
2024-01-25T20:40:15.811Z,8.81
2024-01-25T20:42:42.202Z,8.59
2024-01-25T20:45:08.798Z,8.59
2024-01-25T20:47:35.182Z,8.69
2024-01-25T20:50:01.984Z,8.56
2024-01-25T20:52:28.466Z,8.69
2024-01-25T20:54:54.969Z,8.35
2024-01-25T20:57:21.496Z,8.82
2024-01-25T20:59:47.841Z,8.44
2024-01-25T21:02:14.314Z,8.43
2024-01-25T21:04:41.810Z,8.81
2024-01-25T21:07:08.483Z,8.38
2024-01-25T21:09:35.057Z,8.71
2024-01-25T21:12:01.485Z,8.87
2024-01-25T21:14:27.942Z,9.10
2024-01-25T21:16:55.323Z,9.32
2024-01-25T21:19:21.779Z,9.63
2024-01-25T21:21:48.256Z,9.08
2024-01-25T21:24:14.666Z,8.80
2024-01-25T21:26:41.012Z,8.76
2024-01-25T21:29:07.776Z,8.67
2024-01-25T21:31:34.178Z,8.89
2024-01-25T21:34:05.118Z,9.20
2024-01-25T21:36:32.053Z,8.97
2024-01-25T21:38:58.445Z,8.48
2024-01-25T21:41:24.804Z,8.35
2024-01-25T21:43:51.229Z,8.24
2024-01-25T21:46:17.652Z,9.01
2024-01-25T21:48:44.100Z,9.20
2024-01-25T21:51:11.003Z,9.15
2024-01-25T21:53:40.193Z,8.71
2024-01-25T21:56:07.284Z,8.66
2024-01-25T21:58:34.413Z,9.06
2024-01-25T22:01:01.389Z,8.62
2024-01-25T22:03:28.365Z,8.43
2024-01-25T22:05:54.958Z,8.04
2024-01-25T22:08:21.540Z,7.89
2024-01-25T22:10:48.018Z,7.90
2024-01-25T22:13:16.429Z,8.29
2024-01-25T22:15:43.094Z,9.05
2024-01-25T22:18:09.554Z,9.03
2024-01-25T22:20:36.017Z,9.24
2024-01-25T22:23:04.136Z,9.19
2024-01-25T22:25:30.486Z,8.53
2024-01-25T22:28:00.564Z,8.44
2024-01-25T22:30:27.128Z,8.48
2024-01-25T22:32:53.492Z,8.96
2024-01-25T22:35:19.927Z,9.09
2024-01-25T22:37:46.422Z,8.73
2024-01-25T22:40:12.963Z,8.61
2024-01-25T22:42:39.346Z,8.16
2024-01-25T22:45:05.772Z,7.71
2024-01-25T22:47:32.134Z,8.31
2024-01-25T22:49:58.862Z,8.37
2024-01-25T22:52:25.194Z,8.02
2024-01-25T22:54:51.999Z,8.40
2024-01-25T22:57:18.561Z,8.31
2024-01-25T22:59:45.030Z,8.25
2024-01-25T23:02:11.404Z,8.54
2024-01-25T23:04:38.169Z,8.79
2024-01-25T23:07:04.763Z,8.31
2024-01-25T23:09:31.725Z,8.33
2024-01-25T23:11:58.740Z,8.80
2024-01-25T23:14:25.242Z,9.28
2024-01-25T23:16:51.804Z,9.10
2024-01-25T23:19:19.760Z,9.25
2024-01-25T23:21:47.168Z,9.39
2024-01-25T23:24:13.581Z,9.21
2024-01-25T23:26:39.972Z,9.58
2024-01-25T23:29:06.950Z,9.94
2024-01-25T23:31:33.517Z,10.10
2024-01-25T23:33:59.956Z,10.38
2024-01-25T23:36:26.812Z,10.24
2024-01-25T23:38:53.463Z,9.68
2024-01-25T23:41:19.908Z,9.54
2024-01-25T23:43:46.284Z,9.20
2024-01-25T23:46:13.025Z,7.98
2024-01-25T23:48:39.695Z,7.56
2024-01-25T23:51:06.755Z,7.45
2024-01-25T23:53:33.231Z,7.79
2024-01-25T23:55:59.829Z,8.20
2024-01-25T23:58:26.488Z,7.76
